sensor_id;sensor_type;location;lat;lon;timestamp;P1;durP1;ratioP1;P2;durP2;ratioP2
52508;SDS011;38420;53.150;6.370;2023-03-14T00:02:09;32.67;;;6.03;;
52508;SDS011;38420;53.150;6.370;2023-03-14T00:04:35;23.77;;;5.75;;
52508;SDS011;38420;53.150;6.370;2023-03-14T00:07:01;29.83;;;5.82;;
52508;SDS011;38420;53.150;6.370;2023-03-14T00:09:27;27.98;;;5.78;;
52508;SDS011;38420;53.150;6.370;2023-03-14T00:11:54;25.77;;;5.55;;
52508;SDS011;38420;53.150;6.370;2023-03-14T00:14:20;29.15;;;5.72;;
52508;SDS011;38420;53.150;6.370;2023-03-14T00:16:46;26.10;;;5.13;;
52508;SDS011;38420;53.150;6.370;2023-03-14T00:19:12;23.98;;;6.15;;
52508;SDS011;38420;53.150;6.370;2023-03-14T00:21:38;27.17;;;5.97;;
52508;SDS011;38420;53.150;6.370;2023-03-14T00:24:03;27.80;;;5.25;;
52508;SDS011;38420;53.150;6.370;2023-03-14T00:26:29;24.70;;;4.72;;
52508;SDS011;38420;53.150;6.370;2023-03-14T00:28:55;19.33;;;5.43;;
52508;SDS011;38420;53.150;6.370;2023-03-14T00:31:21;23.23;;;4.82;;
52508;SDS011;38420;53.150;6.370;2023-03-14T00:33:47;24.38;;;5.15;;
52508;SDS011;38420;53.150;6.370;2023-03-14T00:36:13;32.75;;;4.80;;
52508;SDS011;38420;53.150;6.370;2023-03-14T00:38:41;22.60;;;4.50;;
52508;SDS011;38420;53.150;6.370;2023-03-14T00:41:09;29.92;;;5.00;;
52508;SDS011;38420;53.150;6.370;2023-03-14T00:43:36;24.75;;;5.43;;
52508;SDS011;38420;53.150;6.370;2023-03-14T00:46:03;23.90;;;5.10;;
52508;SDS011;38420;53.150;6.370;2023-03-14T00:48:29;25.35;;;5.13;;
52508;SDS011;38420;53.150;6.370;2023-03-14T00:50:55;28.00;;;5.68;;
52508;SDS011;38420;53.150;6.370;2023-03-14T00:53:21;18.17;;;4.95;;
52508;SDS011;38420;53.150;6.370;2023-03-14T00:55:46;23.98;;;4.93;;
52508;SDS011;38420;53.150;6.370;2023-03-14T00:58:14;29.73;;;5.05;;
52508;SDS011;38420;53.150;6.370;2023-03-14T01:00:41;22.85;;;5.50;;
52508;SDS011;38420;53.150;6.370;2023-03-14T01:03:07;17.83;;;4.90;;
52508;SDS011;38420;53.150;6.370;2023-03-14T01:05:33;21.35;;;5.07;;
52508;SDS011;38420;53.150;6.370;2023-03-14T01:07:59;20.95;;;6.05;;
52508;SDS011;38420;53.150;6.370;2023-03-14T01:10:25;23.80;;;4.75;;
52508;SDS011;38420;53.150;6.370;2023-03-14T01:12:51;22.50;;;5.55;;
52508;SDS011;38420;53.150;6.370;2023-03-14T01:15:16;21.25;;;4.63;;
52508;SDS011;38420;53.150;6.370;2023-03-14T01:17:42;24.10;;;4.07;;
52508;SDS011;38420;53.150;6.370;2023-03-14T01:20:09;21.50;;;5.43;;
52508;SDS011;38420;53.150;6.370;2023-03-14T01:22:37;28.90;;;4.90;;
52508;SDS011;38420;53.150;6.370;2023-03-14T01:25:05;19.77;;;4.03;;
52508;SDS011;38420;53.150;6.370;2023-03-14T01:27:35;23.53;;;4.97;;
52508;SDS011;38420;53.150;6.370;2023-03-14T01:30:00;21.63;;;4.85;;
52508;SDS011;38420;53.150;6.370;2023-03-14T01:32:27;26.13;;;5.38;;
52508;SDS011;38420;53.150;6.370;2023-03-14T01:34:53;16.85;;;4.07;;
52508;SDS011;38420;53.150;6.370;2023-03-14T01:37:18;19.25;;;3.97;;
52508;SDS011;38420;53.150;6.370;2023-03-14T01:39:44;13.88;;;3.63;;
52508;SDS011;38420;53.150;6.370;2023-03-14T01:42:11;24.80;;;3.53;;
52508;SDS011;38420;53.150;6.370;2023-03-14T01:47:23;15.10;;;3.88;;
52508;SDS011;38420;53.150;6.370;2023-03-14T01:49:59;18.17;;;3.42;;
52508;SDS011;38420;53.150;6.370;2023-03-14T01:52:47;22.02;;;3.80;;
52508;SDS011;38420;53.150;6.370;2023-03-14T01:55:21;16.17;;;3.55;;
52508;SDS011;38420;53.150;6.370;2023-03-14T01:57:54;20.10;;;3.15;;
52508;SDS011;38420;53.150;6.370;2023-03-14T02:00:24;20.92;;;3.97;;
52508;SDS011;38420;53.150;6.370;2023-03-14T02:02:50;16.73;;;4.00;;
52508;SDS011;38420;53.150;6.370;2023-03-14T02:05:21;21.90;;;3.33;;
52508;SDS011;38420;53.150;6.370;2023-03-14T02:07:54;17.65;;;3.42;;
52508;SDS011;38420;53.150;6.370;2023-03-14T02:10:25;17.70;;;3.50;;
52508;SDS011;38420;53.150;6.370;2023-03-14T02:12:54;18.27;;;3.35;;
52508;SDS011;38420;53.150;6.370;2023-03-14T02:15:21;15.90;;;4.07;;
52508;SDS011;38420;53.150;6.370;2023-03-14T02:17:48;13.85;;;2.72;;
52508;SDS011;38420;53.150;6.370;2023-03-14T02:20:18;14.30;;;3.13;;
52508;SDS011;38420;53.150;6.370;2023-03-14T02:22:48;13.73;;;3.25;;
52508;SDS011;38420;53.150;6.370;2023-03-14T02:25:16;20.13;;;3.15;;
52508;SDS011;38420;53.150;6.370;2023-03-14T02:27:50;13.40;;;3.38;;
52508;SDS011;38420;53.150;6.370;2023-03-14T02:30:17;15.88;;;2.47;;
52508;SDS011;38420;53.150;6.370;2023-03-14T02:32:45;18.42;;;3.25;;
52508;SDS011;38420;53.150;6.370;2023-03-14T02:35:14;14.13;;;2.70;;
52508;SDS011;38420;53.150;6.370;2023-03-14T02:37:46;15.83;;;2.80;;
52508;SDS011;38420;53.150;6.370;2023-03-14T02:40:15;14.30;;;2.97;;
52508;SDS011;38420;53.150;6.370;2023-03-14T02:42:41;23.67;;;4.03;;
52508;SDS011;38420;53.150;6.370;2023-03-14T02:47:36;16.75;;;3.15;;
52508;SDS011;38420;53.150;6.370;2023-03-14T02:50:08;16.60;;;3.83;;
52508;SDS011;38420;53.150;6.370;2023-03-14T02:52:40;19.52;;;3.80;;
52508;SDS011;38420;53.150;6.370;2023-03-14T02:55:05;16.05;;;4.00;;
52508;SDS011;38420;53.150;6.370;2023-03-14T02:57:31;12.95;;;4.15;;
52508;SDS011;38420;53.150;6.370;2023-03-14T03:00:00;14.70;;;3.33;;
52508;SDS011;38420;53.150;6.370;2023-03-14T03:02:31;17.25;;;4.18;;
52508;SDS011;38420;53.150;6.370;2023-03-14T03:04:57;16.92;;;4.72;;
52508;SDS011;38420;53.150;6.370;2023-03-14T03:07:23;16.33;;;4.15;;
52508;SDS011;38420;53.150;6.370;2023-03-14T03:09:49;14.93;;;4.15;;
52508;SDS011;38420;53.150;6.370;2023-03-14T03:12:14;18.15;;;4.55;;
52508;SDS011;38420;53.150;6.370;2023-03-14T03:14:40;13.18;;;4.50;;
52508;SDS011;38420;53.150;6.370;2023-03-14T03:17:05;13.68;;;4.18;;
52508;SDS011;38420;53.150;6.370;2023-03-14T03:19:32;20.73;;;5.03;;
52508;SDS011;38420;53.150;6.370;2023-03-14T03:21:58;20.17;;;5.68;;
52508;SDS011;38420;53.150;6.370;2023-03-14T03:24:24;17.60;;;5.20;;
52508;SDS011;38420;53.150;6.370;2023-03-14T03:26:51;17.95;;;4.57;;
52508;SDS011;38420;53.150;6.370;2023-03-14T03:29:16;19.45;;;5.72;;
52508;SDS011;38420;53.150;6.370;2023-03-14T03:31:42;19.13;;;5.03;;
52508;SDS011;38420;53.150;6.370;2023-03-14T03:34:10;15.95;;;4.25;;
52508;SDS011;38420;53.150;6.370;2023-03-14T03:36:36;25.55;;;5.72;;
52508;SDS011;38420;53.150;6.370;2023-03-14T03:39:02;22.70;;;6.80;;
52508;SDS011;38420;53.150;6.370;2023-03-14T03:41:28;20.73;;;5.43;;
52508;SDS011;38420;53.150;6.370;2023-03-14T03:43:54;24.95;;;5.93;;
52508;SDS011;38420;53.150;6.370;2023-03-14T03:46:20;25.67;;;6.05;;
52508;SDS011;38420;53.150;6.370;2023-03-14T03:48:46;30.83;;;5.68;;
52508;SDS011;38420;53.150;6.370;2023-03-14T03:51:12;23.80;;;6.60;;
52508;SDS011;38420;53.150;6.370;2023-03-14T03:53:39;19.52;;;5.78;;
52508;SDS011;38420;53.150;6.370;2023-03-14T03:56:05;26.40;;;7.43;;
52508;SDS011;38420;53.150;6.370;2023-03-14T03:58:31;33.42;;;6.82;;
52508;SDS011;38420;53.150;6.370;2023-03-14T04:00:56;25.17;;;5.25;;
52508;SDS011;38420;53.150;6.370;2023-03-14T04:03:22;25.17;;;5.63;;
52508;SDS011;38420;53.150;6.370;2023-03-14T04:05:57;28.63;;;6.03;;
52508;SDS011;38420;53.150;6.370;2023-03-14T04:08:24;40.83;;;7.78;;
52508;SDS011;38420;53.150;6.370;2023-03-14T04:10:49;26.58;;;5.43;;
52508;SDS011;38420;53.150;6.370;2023-03-14T04:13:20;17.75;;;5.57;;
52508;SDS011;38420;53.150;6.370;2023-03-14T04:15:45;21.75;;;6.22;;
52508;SDS011;38420;53.150;6.370;2023-03-14T04:18:11;26.13;;;6.53;;
52508;SDS011;38420;53.150;6.370;2023-03-14T04:20:36;24.75;;;6.65;;
52508;SDS011;38420;53.150;6.370;2023-03-14T04:23:02;31.90;;;6.95;;
52508;SDS011;38420;53.150;6.370;2023-03-14T04:25:28;24.20;;;7.13;;
52508;SDS011;38420;53.150;6.370;2023-03-14T04:27:53;29.42;;;7.25;;
52508;SDS011;38420;53.150;6.370;2023-03-14T04:30:19;28.60;;;7.93;;
52508;SDS011;38420;53.150;6.370;2023-03-14T04:32:44;36.25;;;8.60;;
52508;SDS011;38420;53.150;6.370;2023-03-14T04:35:10;27.95;;;8.82;;
52508;SDS011;38420;53.150;6.370;2023-03-14T04:37:36;25.23;;;8.18;;
52508;SDS011;38420;53.150;6.370;2023-03-14T04:40:01;28.98;;;8.93;;
52508;SDS011;38420;53.150;6.370;2023-03-14T04:42:29;25.42;;;9.48;;
52508;SDS011;38420;53.150;6.370;2023-03-14T04:44:54;24.83;;;10.10;;
52508;SDS011;38420;53.150;6.370;2023-03-14T04:47:20;27.92;;;9.73;;
52508;SDS011;38420;53.150;6.370;2023-03-14T04:49:45;29.63;;;11.55;;
52508;SDS011;38420;53.150;6.370;2023-03-14T04:52:11;30.85;;;10.30;;
52508;SDS011;38420;53.150;6.370;2023-03-14T04:54:36;27.35;;;11.23;;
52508;SDS011;38420;53.150;6.370;2023-03-14T04:57:02;25.50;;;11.88;;
52508;SDS011;38420;53.150;6.370;2023-03-14T04:59:28;31.90;;;11.95;;
52508;SDS011;38420;53.150;6.370;2023-03-14T05:01:53;30.02;;;11.05;;
52508;SDS011;38420;53.150;6.370;2023-03-14T05:04:19;24.73;;;11.00;;
52508;SDS011;38420;53.150;6.370;2023-03-14T05:06:44;30.45;;;10.85;;
52508;SDS011;38420;53.150;6.370;2023-03-14T05:09:10;27.70;;;10.48;;
52508;SDS011;38420;53.150;6.370;2023-03-14T05:11:35;26.75;;;10.35;;
52508;SDS011;38420;53.150;6.370;2023-03-14T05:14:01;25.65;;;10.88;;
52508;SDS011;38420;53.150;6.370;2023-03-14T05:16:27;22.05;;;8.90;;
52508;SDS011;38420;53.150;6.370;2023-03-14T05:18:52;21.98;;;9.75;;
52508;SDS011;38420;53.150;6.370;2023-03-14T05:21:18;27.17;;;11.02;;
52508;SDS011;38420;53.150;6.370;2023-03-14T05:23:43;24.00;;;9.75;;
52508;SDS011;38420;53.150;6.370;2023-03-14T05:26:09;24.00;;;7.93;;
52508;SDS011;38420;53.150;6.370;2023-03-14T05:28:35;19.83;;;8.20;;
52508;SDS011;38420;53.150;6.370;2023-03-14T05:31:00;17.13;;;6.82;;
52508;SDS011;38420;53.150;6.370;2023-03-14T05:33:26;18.98;;;6.82;;
52508;SDS011;38420;53.150;6.370;2023-03-14T05:35:51;14.98;;;5.78;;
52508;SDS011;38420;53.150;6.370;2023-03-14T05:38:17;15.55;;;7.30;;
52508;SDS011;38420;53.150;6.370;2023-03-14T05:40:44;17.80;;;7.70;;
52508;SDS011;38420;53.150;6.370;2023-03-14T05:43:10;16.30;;;7.32;;
52508;SDS011;38420;53.150;6.370;2023-03-14T05:45:35;21.55;;;7.72;;
52508;SDS011;38420;53.150;6.370;2023-03-14T05:48:01;15.50;;;7.25;;
52508;SDS011;38420;53.150;6.370;2023-03-14T05:50:27;13.80;;;6.63;;
52508;SDS011;38420;53.150;6.370;2023-03-14T05:52:52;19.23;;;6.25;;
52508;SDS011;38420;53.150;6.370;2023-03-14T05:55:18;10.85;;;5.60;;
52508;SDS011;38420;53.150;6.370;2023-03-14T05:57:43;12.52;;;5.57;;
52508;SDS011;38420;53.150;6.370;2023-03-14T06:00:09;10.52;;;6.15;;
52508;SDS011;38420;53.150;6.370;2023-03-14T06:02:35;11.93;;;5.88;;
52508;SDS011;38420;53.150;6.370;2023-03-14T06:05:01;17.70;;;6.93;;
52508;SDS011;38420;53.150;6.370;2023-03-14T06:07:26;17.83;;;6.60;;
52508;SDS011;38420;53.150;6.370;2023-03-14T06:09:52;13.68;;;7.45;;
52508;SDS011;38420;53.150;6.370;2023-03-14T06:12:17;15.00;;;6.03;;
52508;SDS011;38420;53.150;6.370;2023-03-14T06:14:43;15.57;;;7.15;;
52508;SDS011;38420;53.150;6.370;2023-03-14T06:17:09;20.60;;;7.00;;
52508;SDS011;38420;53.150;6.370;2023-03-14T06:19:34;13.20;;;6.18;;
52508;SDS011;38420;53.150;6.370;2023-03-14T06:22:00;17.20;;;6.85;;
52508;SDS011;38420;53.150;6.370;2023-03-14T06:24:25;10.35;;;6.10;;
52508;SDS011;38420;53.150;6.370;2023-03-14T06:26:51;7.05;;;2.63;;
52508;SDS011;38420;53.150;6.370;2023-03-14T06:29:17;9.95;;;1.85;;
52508;SDS011;38420;53.150;6.370;2023-03-14T06:31:42;6.18;;;1.33;;
52508;SDS011;38420;53.150;6.370;2023-03-14T06:34:08;12.93;;;1.80;;
52508;SDS011;38420;53.150;6.370;2023-03-14T06:36:33;15.70;;;1.88;;
52508;SDS011;38420;53.150;6.370;2023-03-14T06:38:59;13.52;;;2.10;;
52508;SDS011;38420;53.150;6.370;2023-03-14T06:41:25;14.50;;;1.98;;
52508;SDS011;38420;53.150;6.370;2023-03-14T06:43:51;11.48;;;1.83;;
52508;SDS011;38420;53.150;6.370;2023-03-14T06:46:17;18.40;;;2.60;;
52508;SDS011;38420;53.150;6.370;2023-03-14T06:48:43;23.90;;;2.40;;
52508;SDS011;38420;53.150;6.370;2023-03-14T06:51:08;12.65;;;2.65;;
52508;SDS011;38420;53.150;6.370;2023-03-14T06:53:34;14.18;;;2.38;;
52508;SDS011;38420;53.150;6.370;2023-03-14T06:56:00;18.17;;;1.90;;
52508;SDS011;38420;53.150;6.370;2023-03-14T06:58:25;12.93;;;1.77;;
52508;SDS011;38420;53.150;6.370;2023-03-14T07:00:52;15.23;;;2.72;;
52508;SDS011;38420;53.150;6.370;2023-03-14T07:03:18;6.90;;;2.10;;
52508;SDS011;38420;53.150;6.370;2023-03-14T07:05:43;14.95;;;2.47;;
52508;SDS011;38420;53.150;6.370;2023-03-14T07:08:09;9.75;;;1.25;;
52508;SDS011;38420;53.150;6.370;2023-03-14T07:10:35;10.95;;;1.60;;
52508;SDS011;38420;53.150;6.370;2023-03-14T07:13:00;13.77;;;2.03;;
52508;SDS011;38420;53.150;6.370;2023-03-14T07:15:26;10.13;;;1.63;;
52508;SDS011;38420;53.150;6.370;2023-03-14T07:17:52;9.23;;;1.30;;
52508;SDS011;38420;53.150;6.370;2023-03-14T07:20:17;14.48;;;3.33;;
52508;SDS011;38420;53.150;6.370;2023-03-14T07:22:43;7.78;;;1.10;;
52508;SDS011;38420;53.150;6.370;2023-03-14T07:25:09;5.32;;;0.90;;
52508;SDS011;38420;53.150;6.370;2023-03-14T07:27:37;8.30;;;1.83;;
52508;SDS011;38420;53.150;6.370;2023-03-14T07:30:02;4.97;;;0.70;;
52508;SDS011;38420;53.150;6.370;2023-03-14T07:32:28;9.18;;;0.70;;
52508;SDS011;38420;53.150;6.370;2023-03-14T07:34:54;7.10;;;0.70;;
52508;SDS011;38420;53.150;6.370;2023-03-14T07:37:20;6.80;;;0.77;;
52508;SDS011;38420;53.150;6.370;2023-03-14T07:39:45;5.68;;;1.30;;
52508;SDS011;38420;53.150;6.370;2023-03-14T07:42:11;7.55;;;1.15;;
52508;SDS011;38420;53.150;6.370;2023-03-14T07:44:36;6.13;;;1.00;;
52508;SDS011;38420;53.150;6.370;2023-03-14T07:47:02;7.82;;;1.10;;
52508;SDS011;38420;53.150;6.370;2023-03-14T07:49:28;4.68;;;0.68;;
52508;SDS011;38420;53.150;6.370;2023-03-14T07:51:53;6.35;;;1.08;;
52508;SDS011;38420;53.150;6.370;2023-03-14T07:54:19;7.65;;;1.67;;
52508;SDS011;38420;53.150;6.370;2023-03-14T07:56:45;6.20;;;0.88;;
52508;SDS011;38420;53.150;6.370;2023-03-14T07:59:10;9.68;;;1.23;;
52508;SDS011;38420;53.150;6.370;2023-03-14T08:01:37;15.18;;;1.52;;
52508;SDS011;38420;53.150;6.370;2023-03-14T08:04:03;8.68;;;1.60;;
52508;SDS011;38420;53.150;6.370;2023-03-14T08:06:29;11.75;;;2.17;;
52508;SDS011;38420;53.150;6.370;2023-03-14T08:08:54;11.23;;;2.15;;
52508;SDS011;38420;53.150;6.370;2023-03-14T08:11:20;7.00;;;1.17;;
52508;SDS011;38420;53.150;6.370;2023-03-14T08:13:46;13.75;;;2.15;;
52508;SDS011;38420;53.150;6.370;2023-03-14T08:16:15;5.38;;;1.65;;
52508;SDS011;38420;53.150;6.370;2023-03-14T08:18:42;9.38;;;1.92;;
52508;SDS011;38420;53.150;6.370;2023-03-14T08:21:08;18.40;;;3.42;;
52508;SDS011;38420;53.150;6.370;2023-03-14T08:23:34;8.30;;;2.42;;
52508;SDS011;38420;53.150;6.370;2023-03-14T08:25:59;16.73;;;1.85;;
52508;SDS011;38420;53.150;6.370;2023-03-14T08:28:25;10.68;;;1.27;;
52508;SDS011;38420;53.150;6.370;2023-03-14T08:30:55;3.47;;;1.23;;
52508;SDS011;38420;53.150;6.370;2023-03-14T08:33:22;7.28;;;1.23;;
52508;SDS011;38420;53.150;6.370;2023-03-14T08:35:48;10.95;;;2.05;;
52508;SDS011;38420;53.150;6.370;2023-03-14T08:38:17;10.38;;;1.48;;
52508;SDS011;38420;53.150;6.370;2023-03-14T08:40:43;8.30;;;1.60;;
52508;SDS011;38420;53.150;6.370;2023-03-14T08:43:08;17.00;;;3.53;;
52508;SDS011;38420;53.150;6.370;2023-03-14T08:45:34;9.32;;;1.73;;
52508;SDS011;38420;53.150;6.370;2023-03-14T08:47:59;11.73;;;2.25;;
52508;SDS011;38420;53.150;6.370;2023-03-14T08:50:25;13.20;;;1.52;;
52508;SDS011;38420;53.150;6.370;2023-03-14T08:52:51;11.77;;;1.92;;
52508;SDS011;38420;53.150;6.370;2023-03-14T08:55:17;14.32;;;2.03;;
52508;SDS011;38420;53.150;6.370;2023-03-14T08:57:42;15.25;;;2.47;;
52508;SDS011;38420;53.150;6.370;2023-03-14T09:00:08;15.00;;;2.88;;
52508;SDS011;38420;53.150;6.370;2023-03-14T09:02:39;14.50;;;3.22;;
52508;SDS011;38420;53.150;6.370;2023-03-14T09:05:05;17.50;;;3.53;;
52508;SDS011;38420;53.150;6.370;2023-03-14T09:07:31;16.17;;;3.13;;
52508;SDS011;38420;53.150;6.370;2023-03-14T09:09:56;19.95;;;2.65;;
52508;SDS011;38420;53.150;6.370;2023-03-14T09:12:22;23.70;;;4.05;;
52508;SDS011;38420;53.150;6.370;2023-03-14T09:14:47;19.83;;;3.28;;
52508;SDS011;38420;53.150;6.370;2023-03-14T09:17:13;37.30;;;4.65;;
52508;SDS011;38420;53.150;6.370;2023-03-14T09:19:39;31.17;;;4.65;;
52508;SDS011;38420;53.150;6.370;2023-03-14T09:22:04;20.73;;;3.42;;
52508;SDS011;38420;53.150;6.370;2023-03-14T09:24:30;26.35;;;3.70;;
52508;SDS011;38420;53.150;6.370;2023-03-14T09:26:55;21.55;;;3.88;;
52508;SDS011;38420;53.150;6.370;2023-03-14T09:29:22;23.27;;;3.95;;
52508;SDS011;38420;53.150;6.370;2023-03-14T09:31:47;16.75;;;2.78;;
52508;SDS011;38420;53.150;6.370;2023-03-14T09:34:13;21.17;;;2.92;;
52508;SDS011;38420;53.150;6.370;2023-03-14T09:36:38;21.50;;;3.67;;
52508;SDS011;38420;53.150;6.370;2023-03-14T09:39:04;26.58;;;3.38;;
52508;SDS011;38420;53.150;6.370;2023-03-14T09:41:34;27.38;;;3.72;;
52508;SDS011;38420;53.150;6.370;2023-03-14T09:46:30;26.95;;;5.00;;
52508;SDS011;38420;53.150;6.370;2023-03-14T09:48:59;22.00;;;3.55;;
52508;SDS011;38420;53.150;6.370;2023-03-14T09:51:24;24.45;;;3.67;;
52508;SDS011;38420;53.150;6.370;2023-03-14T09:53:51;17.33;;;2.78;;
52508;SDS011;38420;53.150;6.370;2023-03-14T09:56:18;24.55;;;4.32;;
52508;SDS011;38420;53.150;6.370;2023-03-14T09:58:48;24.02;;;3.75;;
52508;SDS011;38420;53.150;6.370;2023-03-14T10:01:29;23.38;;;4.13;;
52508;SDS011;38420;53.150;6.370;2023-03-14T10:03:57;24.10;;;4.32;;
52508;SDS011;38420;53.150;6.370;2023-03-14T10:06:28;23.30;;;4.57;;
52508;SDS011;38420;53.150;6.370;2023-03-14T10:08:55;22.88;;;3.50;;
52508;SDS011;38420;53.150;6.370;2023-03-14T10:11:22;25.55;;;3.92;;
52508;SDS011;38420;53.150;6.370;2023-03-14T10:16:31;21.77;;;3.72;;
52508;SDS011;38420;53.150;6.370;2023-03-14T10:19:02;21.90;;;3.35;;
52508;SDS011;38420;53.150;6.370;2023-03-14T10:21:29;19.92;;;3.60;;
52508;SDS011;38420;53.150;6.370;2023-03-14T10:24:08;18.98;;;3.30;;
52508;SDS011;38420;53.150;6.370;2023-03-14T10:26:40;19.50;;;4.00;;
52508;SDS011;38420;53.150;6.370;2023-03-14T10:29:10;17.08;;;3.33;;
52508;SDS011;38420;53.150;6.370;2023-03-14T10:31:48;15.15;;;2.83;;
52508;SDS011;38420;53.150;6.370;2023-03-14T10:34:16;18.58;;;3.00;;
52508;SDS011;38420;53.150;6.370;2023-03-14T10:39:24;17.42;;;3.10;;
52508;SDS011;38420;53.150;6.370;2023-03-14T10:44:38;15.95;;;2.88;;
52508;SDS011;38420;53.150;6.370;2023-03-14T10:47:04;10.02;;;2.70;;
52508;SDS011;38420;53.150;6.370;2023-03-14T10:52:12;18.67;;;2.08;;
52508;SDS011;38420;53.150;6.370;2023-03-14T10:54:59;8.80;;;1.98;;
52508;SDS011;38420;53.150;6.370;2023-03-14T10:57:26;20.23;;;2.20;;
52508;SDS011;38420;53.150;6.370;2023-03-14T10:59:53;8.35;;;1.80;;
52508;SDS011;38420;53.150;6.370;2023-03-14T11:02:27;17.55;;;2.75;;
52508;SDS011;38420;53.150;6.370;2023-03-14T11:08:01;12.73;;;2.47;;
52508;SDS011;38420;53.150;6.370;2023-03-14T11:10:35;11.85;;;1.83;;
52508;SDS011;38420;53.150;6.370;2023-03-14T11:13:08;11.88;;;1.92;;
52508;SDS011;38420;53.150;6.370;2023-03-14T11:21:20;13.60;;;2.25;;
52508;SDS011;38420;53.150;6.370;2023-03-14T11:32:10;11.40;;;1.30;;
52508;SDS011;38420;53.150;6.370;2023-03-14T11:34:55;12.43;;;1.73;;
52508;SDS011;38420;53.150;6.370;2023-03-14T11:37:25;8.98;;;1.35;;
52508;SDS011;38420;53.150;6.370;2023-03-14T11:40:16;6.32;;;1.50;;
52508;SDS011;38420;53.150;6.370;2023-03-14T11:42:46;11.38;;;1.73;;
52508;SDS011;38420;53.150;6.370;2023-03-14T11:45:21;7.07;;;1.25;;
52508;SDS011;38420;53.150;6.370;2023-03-14T11:48:10;11.77;;;2.10;;
52508;SDS011;38420;53.150;6.370;2023-03-14T11:51:02;10.23;;;1.60;;
52508;SDS011;38420;53.150;6.370;2023-03-14T11:56:04;6.00;;;1.08;;
52508;SDS011;38420;53.150;6.370;2023-03-14T11:58:46;7.82;;;1.73;;
52508;SDS011;38420;53.150;6.370;2023-03-14T12:01:19;12.00;;;1.63;;
52508;SDS011;38420;53.150;6.370;2023-03-14T12:03:57;11.57;;;1.92;;
52508;SDS011;38420;53.150;6.370;2023-03-14T12:14:26;18.42;;;1.80;;
52508;SDS011;38420;53.150;6.370;2023-03-14T12:19:38;11.50;;;1.73;;
52508;SDS011;38420;53.150;6.370;2023-03-14T12:22:12;8.15;;;1.70;;
52508;SDS011;38420;53.150;6.370;2023-03-14T12:24:49;8.43;;;1.48;;
52508;SDS011;38420;53.150;6.370;2023-03-14T12:30:27;9.57;;;1.35;;
52508;SDS011;38420;53.150;6.370;2023-03-14T12:35:51;10.00;;;1.63;;
52508;SDS011;38420;53.150;6.370;2023-03-14T12:43:39;11.13;;;1.70;;
52508;SDS011;38420;53.150;6.370;2023-03-14T12:46:09;7.55;;;1.30;;
52508;SDS011;38420;53.150;6.370;2023-03-14T12:48:43;10.95;;;1.65;;
52508;SDS011;38420;53.150;6.370;2023-03-14T12:51:16;13.20;;;2.17;;
52508;SDS011;38420;53.150;6.370;2023-03-14T12:54:28;9.27;;;1.50;;
52508;SDS011;38420;53.150;6.370;2023-03-14T12:59:51;11.43;;;2.00;;
52508;SDS011;38420;53.150;6.370;2023-03-14T13:02:22;11.07;;;1.85;;
52508;SDS011;38420;53.150;6.370;2023-03-14T13:05:12;9.10;;;2.10;;
52508;SDS011;38420;53.150;6.370;2023-03-14T13:10:25;8.77;;;1.40;;
52508;SDS011;38420;53.150;6.370;2023-03-14T13:17:56;11.07;;;2.40;;
52508;SDS011;38420;53.150;6.370;2023-03-14T13:20:38;7.93;;;1.20;;
52508;SDS011;38420;53.150;6.370;2023-03-14T13:23:23;7.35;;;1.38;;
52508;SDS011;38420;53.150;6.370;2023-03-14T13:25:50;9.52;;;1.60;;
52508;SDS011;38420;53.150;6.370;2023-03-14T13:28:16;6.05;;;1.10;;
52508;SDS011;38420;53.150;6.370;2023-03-14T13:30:46;9.98;;;1.73;;
52508;SDS011;38420;53.150;6.370;2023-03-14T13:35:47;8.00;;;1.67;;
52508;SDS011;38420;53.150;6.370;2023-03-14T13:38:16;6.65;;;1.75;;
52508;SDS011;38420;53.150;6.370;2023-03-14T13:40:50;6.00;;;1.35;;
52508;SDS011;38420;53.150;6.370;2023-03-14T13:46:03;10.55;;;2.08;;
52508;SDS011;38420;53.150;6.370;2023-03-14T13:48:32;11.13;;;1.80;;
52508;SDS011;38420;53.150;6.370;2023-03-14T13:53:33;14.85;;;1.92;;
52508;SDS011;38420;53.150;6.370;2023-03-14T13:56:14;9.48;;;1.85;;
52508;SDS011;38420;53.150;6.370;2023-03-14T13:58:42;5.68;;;1.10;;
52508;SDS011;38420;53.150;6.370;2023-03-14T14:03:58;7.45;;;1.20;;
52508;SDS011;38420;53.150;6.370;2023-03-14T14:06:33;5.75;;;1.30;;
52508;SDS011;38420;53.150;6.370;2023-03-14T14:09:11;5.93;;;1.20;;
52508;SDS011;38420;53.150;6.370;2023-03-14T14:11:55;11.93;;;1.45;;
52508;SDS011;38420;53.150;6.370;2023-03-14T14:14:28;10.20;;;1.90;;
52508;SDS011;38420;53.150;6.370;2023-03-14T14:17:00;11.38;;;1.50;;
52508;SDS011;38420;53.150;6.370;2023-03-14T14:19:29;7.60;;;1.73;;
52508;SDS011;38420;53.150;6.370;2023-03-14T14:21:57;13.25;;;2.35;;
52508;SDS011;38420;53.150;6.370;2023-03-14T14:24:23;7.15;;;1.15;;
52508;SDS011;38420;53.150;6.370;2023-03-14T14:26:53;12.40;;;1.90;;
52508;SDS011;38420;53.150;6.370;2023-03-14T14:34:27;12.50;;;1.67;;
52508;SDS011;38420;53.150;6.370;2023-03-14T14:36:52;14.57;;;2.25;;
52508;SDS011;38420;53.150;6.370;2023-03-14T14:41:54;15.65;;;2.05;;
52508;SDS011;38420;53.150;6.370;2023-03-14T14:44:30;12.35;;;1.52;;
52508;SDS011;38420;53.150;6.370;2023-03-14T14:46:59;8.60;;;2.42;;
52508;SDS011;38420;53.150;6.370;2023-03-14T14:49:30;13.38;;;1.90;;
52508;SDS011;38420;53.150;6.370;2023-03-14T14:52:05;12.43;;;1.40;;
52508;SDS011;38420;53.150;6.370;2023-03-14T14:54:38;6.60;;;1.50;;
52508;SDS011;38420;53.150;6.370;2023-03-14T14:57:19;12.70;;;2.00;;
52508;SDS011;38420;53.150;6.370;2023-03-14T14:59:49;8.10;;;1.40;;
52508;SDS011;38420;53.150;6.370;2023-03-14T15:02:30;9.80;;;1.90;;
52508;SDS011;38420;53.150;6.370;2023-03-14T15:04:56;9.32;;;1.20;;
52508;SDS011;38420;53.150;6.370;2023-03-14T15:07:21;13.48;;;2.13;;
52508;SDS011;38420;53.150;6.370;2023-03-14T15:09:47;12.27;;;2.22;;
52508;SDS011;38420;53.150;6.370;2023-03-14T15:12:12;12.43;;;1.90;;
52508;SDS011;38420;53.150;6.370;2023-03-14T15:14:38;12.45;;;1.70;;
52508;SDS011;38420;53.150;6.370;2023-03-14T15:17:05;10.10;;;1.67;;
52508;SDS011;38420;53.150;6.370;2023-03-14T15:19:34;13.00;;;1.40;;
52508;SDS011;38420;53.150;6.370;2023-03-14T15:21:59;6.30;;;1.25;;
52508;SDS011;38420;53.150;6.370;2023-03-14T15:24:25;10.50;;;1.80;;
52508;SDS011;38420;53.150;6.370;2023-03-14T15:26:51;10.32;;;1.70;;
52508;SDS011;38420;53.150;6.370;2023-03-14T15:29:17;13.88;;;2.17;;
52508;SDS011;38420;53.150;6.370;2023-03-14T15:31:42;7.82;;;1.30;;
52508;SDS011;38420;53.150;6.370;2023-03-14T15:34:08;11.05;;;1.73;;
52508;SDS011;38420;53.150;6.370;2023-03-14T15:36:34;16.63;;;2.58;;
52508;SDS011;38420;53.150;6.370;2023-03-14T15:39:01;8.70;;;1.20;;
52508;SDS011;38420;53.150;6.370;2023-03-14T15:41:28;12.52;;;2.95;;
52508;SDS011;38420;53.150;6.370;2023-03-14T15:43:53;9.57;;;1.17;;
52508;SDS011;38420;53.150;6.370;2023-03-14T15:46:20;10.30;;;1.38;;
52508;SDS011;38420;53.150;6.370;2023-03-14T15:48:47;11.50;;;1.77;;
52508;SDS011;38420;53.150;6.370;2023-03-14T15:51:14;10.50;;;2.25;;
52508;SDS011;38420;53.150;6.370;2023-03-14T15:53:40;12.32;;;1.60;;
52508;SDS011;38420;53.150;6.370;2023-03-14T15:56:10;7.63;;;2.05;;
52508;SDS011;38420;53.150;6.370;2023-03-14T15:58:41;10.80;;;1.60;;
52508;SDS011;38420;53.150;6.370;2023-03-14T16:01:07;10.27;;;2.47;;
52508;SDS011;38420;53.150;6.370;2023-03-14T16:03:34;10.88;;;2.00;;
52508;SDS011;38420;53.150;6.370;2023-03-14T16:06:00;15.63;;;2.22;;
52508;SDS011;38420;53.150;6.370;2023-03-14T16:08:26;11.95;;;1.55;;
52508;SDS011;38420;53.150;6.370;2023-03-14T16:10:53;9.02;;;1.50;;